Aeroporto :
LOGIN :

Iscrizione | Disclaimer

   EN    FR    IT 

 










Sommario :    VFR   VFR Marginale   IFR   IFR Intensivo   IFR Molto Intensivo
Visibilità : 
Base nubi : 
>= 8 km
>= 3000ft
5 / 8 km
1000 / 3000 ft
1500m / 5 km
500 / 1000 ft
800 / 1500m
200 / 500 ft
< 800m
< 200 ft
Simboli :   Temporali  Nebbia  Neve Forte  Precipitazioni Forti  Vento > 20 kt
SIGMETs :   Varie  Temporali  Ghiacco  Turbolenza  Onda orograficha  Ceneri Vulcaniche






- Altitudine del aeroporto : 939 ft


LKKB - Kbely Air Base

ULTIMO METAR :
  • 141300Z 25022KT 9999 FEW025 07/02 Q0991 NOSIG

METARs OBSOLETI :
  • 141200Z 21016KT 9999 SCT023 BKN029 05/02 Q0990 NOSIG
  • 141100Z 18015KT 9999 -RA SCT020 OVC024 04/01 Q0989 NOSIG

TAF COR TAF LKKB
Valido dal 14 a 12 ore il 15 a 12 ore UTC


141100Z 1412/1512 21014KT 9999 BKN035
TEMPO 1412/1421 24018G34KT 6000 RA BKN022 OVC025
BECMG 1415/1417 CAVOK
BECMG 1505/1507 BKN028
TEMPO 1506/1512 24018KT 6000 RA BKN012 OVC022



MetMap, La meteo Aeronautica in un colpo d'occhio ! - Copyright ORBIFLY Dicembre 2007 - Disclaimer

ORBIFLY MET'MAP TEAM :

Programmazione e sviluppo : Alexandra Zaïnal
Concezione : Baudouin d'Aumeries
Aiuto per la programmazione : Marc-Olivier Méhu
Supporto tecnico e logistico : Manuel Goepfert
Aiuto per la traduzione : Arnaldo La Scala

Contatto : metmap@orbifly.com




FONTI E CREDITI :

   NOAA